Alleghany, Virginia
Current Conditions -  °F | °C
As of 11:35 AM on Friday 19 Dec 2014 (Local Time) from KHSP Reporting Station
Clear Clear  
Wind Chill: -8°   Ceiling: Unl
Heat Index: -2°   Visibility: 10mi
Dew Point: -6°   Wind: 15mph
Humidity: 73%   Direction: 290°WNW
Pressure: 30.01"   Gusts: NA
Location:  37.7731°N, 80.0632°W
Report Text: KHSP 191635Z AUTO 29013KT 10SM CLR M02/M06 A3001 RMK AO2 T10211064
Loading
Personal Weather Stations






























Interactive Weather Map New forecast layout! Learn more

10-Day Weather Forecast

Advertisements
Track Severe Weather on mobile